Cumberland Foreside, ME

6:27 AM EDT on May 29, 2015 (GMT -0400)
KMEYARMO3 | | Change Station
CLOSE
Current Station
Personal Weather Station
Location: Yarmouth WPCF, ME
Elevation: 30 ft
Nearby Weather Stations

Elev 30 ft 43.79 °N, 70.17 °W | Updated 7 seconds ago

Partly Cloudy
Partly Cloudy
61.3 °F
Feels Like 61.3 °F
N
0.0
Wind Variable Wind from WNW
Gusts 0.0 mph

Today
High -- | Low -- °F
--% Chance of Precip.
Yesterday
High -- | Low -- °F
Precip. -- in
5:03 AM 8:13 PM
Waxing Gibbous, 82% visible
Pressure 30.27 in
Visibility 10.0 miles
Clouds Mostly Cloudy 5000 ft
Dew Point 58 °F
Humidity 90%
Rainfall 0.00 in
Snow Depth Not available.
UV 0 out of 12
Pollen 8.90 out of 12
Air Quality Not available.
Flu Activity Local Activity
METAR KPWM 290951Z 33008KT 10SM BKN050 18/14 A3026 RMK AO2 SLP248 T01830144

More Conditions Fewer Conditions

Pressure 30.27 in
Visibility 10.0 miles
Clouds Mostly Cloudy 5000 ft
Dew Point 58 °F
Humidity 90%
Rainfall 0.00 in
Snow Depth Not available.
UV 0 out of 12
Pollen 8.90 out of 12
Air Quality Not available.
Flu Activity Local Activity
METAR KPWM 290951Z 33008KT 10SM BKN050 18/14 A3026 RMK AO2 SLP248 T01830144

More Conditions Fewer Conditions

10-Day Weather Forecast

Almanac

Astronomy

May. 29, 2015 Rise Set
Actual Time
Civil Twilight
Nautical Twilight
Astronomical Twilight
Moon
Length of Visible Light
Length of Day
Tomorrow will be .
, % of the Moon is Illuminated

Today's Extremes

State Highs State Lows

Community

WunderPhotos

Upload Photos

1,825,228 photos uploaded!

WunderBlogs® & News

Nearby

Air Quality

  Air Quality AQ Index Pollutant
Not available.

Snow Depth

Station Depth Elevation

Earthquake Activity

City Distance Mag. Time & Date
Minimum magnitude displayed is 2.5.

Coastal Water Temperatures

Place Temperature

Stations

Nearby Weather Stations

Station Location Temp. Windchill Dew Point Humidity Wind Precip. Elev Updated Type